Time;durP1;ratioP1;P1;durP2;ratioP2;P2;SDS_P1;SDS_P2;PMS_P1;PMS_P2;Temp;Humidity;BMP_temperature;BMP_pressure;BME280_temperature;BME280_humidity;BME280_pressure;Samples;Min_cycle;Max_cycle;Signal;HPM_P1;HPM_P2
2023/05/29 00:00:43;;;;;;;8.30;2.17;;;;;;;10.78;100.00;102613.66;5001622;28;20197;-67
2023/05/29 00:03:09;;;;;;;8.23;2.87;;;;;;;10.98;100.00;102641.97;5000499;28;20192;-67
2023/05/29 00:05:35;;;;;;;10.73;3.20;;;;;;;10.83;100.00;102654.31;4999006;28;20641;-67
2023/05/29 00:08:01;;;;;;;9.57;2.80;;;;;;;11.01;100.00;102640.84;5000811;28;20213;-67
2023/05/29 00:10:26;;;;;;;15.33;3.00;;;;;;;10.41;100.00;102558.34;4999132;28;20864;-67
2023/05/29 00:12:52;;;;;;;12.13;2.53;;;;;;;10.39;100.00;102561.22;5001146;28;20209;-67
2023/05/29 00:15:17;;;;;;;10.90;3.50;;;;;;;10.96;100.00;102646.66;5002094;28;20651;-67
2023/05/29 00:17:43;;;;;;;9.17;2.60;;;;;;;10.93;100.00;102648.81;5003389;28;20228;-67
2023/05/29 00:20:09;;;;;;;12.77;3.70;;;;;;;10.69;100.00;102593.13;5001123;28;20304;-67
2023/05/29 00:22:37;;;;;;;9.60;2.40;;;;;;;10.88;100.00;102605.50;5003084;28;20181;-67
2023/05/29 00:25:05;;;;;;;9.67;2.80;;;;;;;10.76;100.00;102613.81;5003318;28;20424;-67
2023/05/29 00:27:30;;;;;;;10.70;2.70;;;;;;;11.01;100.00;102636.28;5002018;28;20451;-67
2023/05/29 00:29:56;;;;;;;10.27;3.20;;;;;;;10.99;100.00;102615.97;5001341;28;20440;-67
2023/05/29 00:32:21;;;;;;;12.23;3.20;;;;;;;10.98;100.00;102595.50;5002176;28;20259;-67
2023/05/29 00:34:46;;;;;;;8.50;2.80;;;;;;;10.42;100.00;102554.69;5000909;28;20270;-67
2023/05/29 00:37:12;;;;;;;10.83;2.97;;;;;;;10.67;100.00;102570.97;5004538;28;20205;-67
2023/05/29 00:39:37;;;;;;;10.73;2.80;;;;;;;11.16;100.00;102641.09;5000723;28;20195;-67
2023/05/29 00:42:03;;;;;;;14.37;3.37;;;;;;;11.20;100.00;102637.94;5003586;28;20193;-67
2023/05/29 00:44:28;;;;;;;9.57;3.00;;;;;;;11.06;100.00;102655.47;5002042;28;20217;-67
2023/05/29 00:46:54;;;;;;;9.43;3.17;;;;;;;10.82;100.00;102647.25;5001606;28;20295;-68
2023/05/29 00:49:22;;;;;;;8.97;2.60;;;;;;;11.01;100.00;102660.47;5002957;28;20272;-67
2023/05/29 00:51:48;;;;;;;12.30;2.77;;;;;;;10.69;100.00;102625.34;5002599;28;20670;-67
2023/05/29 00:54:20;;;;;;;8.33;2.90;;;;;;;11.09;100.00;102667.75;4996802;28;20469;-67
2023/05/29 00:56:46;;;;;;;15.43;3.37;;;;;;;11.17;100.00;102664.28;5002045;28;20459;-67
2023/05/29 00:59:11;;;;;;;8.53;2.97;;;;;;;10.86;100.00;102660.19;4998969;28;20803;-67
2023/05/29 01:01:38;;;;;;;10.60;2.70;;;;;;;10.93;100.00;102667.63;4986028;28;20678;-67
2023/05/29 01:04:08;;;;;;;11.90;3.53;;;;;;;10.90;100.00;102684.03;4998722;28;20208;-67
2023/05/29 01:06:35;;;;;;;13.30;3.20;;;;;;;11.08;100.00;102671.44;4998810;28;20441;-68
2023/05/29 01:09:00;;;;;;;12.00;2.80;;;;;;;10.62;100.00;102652.78;4999171;28;20451;-67
2023/05/29 01:11:41;;;;;;;11.17;3.00;;;;;;;10.82;100.00;102674.09;4999024;28;20844;-67
2023/05/29 01:14:09;;;;;;;9.83;3.03;;;;;;;10.71;100.00;102690.44;4999533;28;20209;-68
2023/05/29 01:16:55;;;;;;;15.20;3.07;;;;;;;10.79;100.00;102669.88;4998983;28;20472;-67
2023/05/29 01:19:24;;;;;;;11.53;3.80;;;;;;;10.93;100.00;102689.94;5000165;28;20515;-67
2023/05/29 01:21:56;;;;;;;12.43;3.70;;;;;;;10.75;100.00;102691.81;5000930;28;20432;-67
2023/05/29 01:24:38;;;;;;;9.90;2.80;;;;;;;10.60;100.00;102686.97;5001363;28;20420;-67
2023/05/29 01:27:05;;;;;;;8.80;2.90;;;;;;;11.07;100.00;102686.69;5002649;28;20973;-67
2023/05/29 01:29:34;;;;;;;8.40;2.30;;;;;;;10.62;100.00;102631.31;5002257;28;21013;-67
2023/05/29 01:32:01;;;;;;;8.10;2.90;;;;;;;10.97;100.00;102669.00;5003174;28;20508;-67
2023/05/29 01:34:27;;;;;;;14.40;3.43;;;;;;;10.81;100.00;102680.44;5002464;28;20461;-67
2023/05/29 01:36:53;;;;;;;8.83;2.90;;;;;;;10.57;100.00;102681.94;5000377;28;20846;-67
2023/05/29 01:39:20;;;;;;;8.07;2.80;;;;;;;10.40;100.00;102639.84;5002560;28;20499;-67
2023/05/29 01:41:47;;;;;;;8.00;2.80;;;;;;;10.66;100.00;102666.75;5001028;28;20185;-67
2023/05/29 01:44:14;;;;;;;10.17;2.60;;;;;;;10.90;100.00;102684.88;5000705;28;20490;-67
2023/05/29 01:46:41;;;;;;;9.23;2.60;;;;;;;10.86;100.00;102686.19;5000552;28;20460;-67
2023/05/29 01:49:08;;;;;;;14.37;3.20;;;;;;;10.91;100.00;102691.94;5000633;28;20973;-67
2023/05/29 01:51:33;;;;;;;9.40;2.60;;;;;;;10.42;100.00;102645.91;5001839;28;20432;-67
2023/05/29 01:54:00;;;;;;;7.93;2.47;;;;;;;10.61;100.00;102664.50;5000118;28;20478;-65
2023/05/29 01:56:27;;;;;;;7.70;3.00;;;;;;;10.30;100.00;102626.53;4997762;28;20190;-66
2023/05/29 01:58:56;;;;;;;9.97;2.57;;;;;;;10.27;100.00;102609.88;5001508;28;20444;-67
2023/05/29 02:01:22;;;;;;;9.07;2.60;;;;;;;10.66;100.00;102687.38;4999134;28;20444;-67
2023/05/29 02:03:48;;;;;;;6.43;2.60;;;;;;;10.57;100.00;102684.59;4998646;28;20780;-67
2023/05/29 02:06:13;;;;;;;6.60;2.07;;;;;;;9.83;100.00;102580.25;4981121;28;20479;-67
2023/05/29 02:08:39;;;;;;;6.20;2.70;;;;;;;10.61;100.00;102693.19;4997567;28;20268;-63
2023/05/29 02:11:04;;;;;;;10.23;2.60;;;;;;;10.60;100.00;102680.78;4998874;28;20192;-67
2023/05/29 02:13:29;;;;;;;9.50;2.70;;;;;;;10.17;100.00;102650.97;4998669;28;20707;-67
2023/05/29 02:15:55;;;;;;;8.77;2.27;;;;;;;10.35;100.00;102693.94;4999509;28;20193;-67
2023/05/29 02:18:20;;;;;;;7.23;2.20;;;;;;;10.36;100.00;102686.75;4994547;28;20244;-67
2023/05/29 02:20:46;;;;;;;12.23;2.73;;;;;;;10.51;100.00;102682.53;4977022;28;20184;-67
2023/05/29 02:23:12;;;;;;;11.73;3.03;;;;;;;9.91;100.00;102612.50;4997177;28;20193;-67
2023/05/29 02:25:38;;;;;;;10.60;3.33;;;;;;;10.37;100.00;102686.59;4995230;28;20656;-67
2023/05/29 02:28:04;;;;;;;10.23;3.03;;;;;;;10.32;100.00;102696.94;4996627;28;20629;-67
2023/05/29 02:30:30;;;;;;;8.63;2.37;;;;;;;10.35;100.00;102667.13;4992295;28;20448;-67
2023/05/29 02:32:55;;;;;;;9.03;2.93;;;;;;;10.05;100.00;102644.16;4974831;28;20220;-67
2023/05/29 02:35:22;;;;;;;11.30;2.67;;;;;;;10.53;100.00;102701.16;4994378;28;20217;-67
2023/05/29 02:37:51;;;;;;;8.13;2.57;;;;;;;10.44;100.00;102699.41;4994358;28;20216;-67
2023/05/29 02:40:17;;;;;;;13.03;2.90;;;;;;;10.63;100.00;102707.31;4995957;28;20448;-67
2023/05/29 02:42:43;;;;;;;6.80;2.57;;;;;;;10.55;100.00;102709.91;4982360;28;20455;-67
2023/05/29 02:45:09;;;;;;;8.23;2.77;;;;;;;10.61;100.00;102687.81;4980785;28;20470;-67
2023/05/29 02:47:35;;;;;;;10.90;3.27;;;;;;;10.19;100.00;102603.41;4977808;28;20318;-67
2023/05/29 02:50:00;;;;;;;12.93;3.00;;;;;;;10.13;100.00;102622.81;4997694;28;20193;-67
2023/05/29 02:52:27;;;;;;;9.03;2.70;;;;;;;10.77;100.00;102674.56;4992020;28;20967;-67
2023/05/29 02:54:54;;;;;;;7.57;2.50;;;;;;;10.30;100.00;102612.25;4995058;28;20551;-67
2023/05/29 02:57:20;;;;;;;8.80;2.43;;;;;;;10.33;100.00;102606.59;4976066;28;20464;-67
2023/05/29 02:59:45;;;;;;;6.70;2.10;;;;;;;10.26;100.00;102600.94;4978074;28;21047;-67
2023/05/29 03:02:11;;;;;;;9.17;3.17;;;;;;;10.50;100.00;102667.44;4977909;28;20466;-67
2023/05/29 03:04:37;;;;;;;8.83;3.10;;;;;;;10.24;100.00;102629.78;4990735;28;20268;-67
2023/05/29 03:07:02;;;;;;;5.57;2.53;;;;;;;10.07;100.00;102590.41;4998375;28;24920;-67
2023/05/29 03:09:28;;;;;;;9.00;2.90;;;;;;;10.76;100.00;102682.75;4973034;28;20185;-67
2023/05/29 03:11:53;;;;;;;9.97;2.80;;;;;;;10.03;100.00;102576.44;4995399;28;20185;-66
2023/05/29 03:14:18;;;;;;;11.10;2.40;;;;;;;9.95;100.00;102628.16;4994948;28;20213;-67
2023/05/29 03:16:45;;;;;;;10.80;2.97;;;;;;;10.73;100.00;102694.66;4978746;28;20213;-67
2023/05/29 03:19:10;;;;;;;9.17;3.10;;;;;;;10.27;100.00;102617.91;4970315;28;20281;-67
2023/05/29 03:21:36;;;;;;;10.47;2.50;;;;;;;10.18;100.00;102593.69;4997128;28;20444;-67
2023/05/29 03:24:05;;;;;;;9.17;2.67;;;;;;;10.81;100.00;102680.44;5001207;28;20807;-67
2023/05/29 03:26:30;;;;;;;9.00;2.30;;;;;;;10.44;100.00;102600.13;5004194;28;20182;-66
2023/05/29 03:28:56;;;;;;;9.33;2.80;;;;;;;9.69;100.00;102541.41;4985981;28;21004;-67
2023/05/29 03:31:21;;;;;;;8.57;2.27;;;;;;;10.42;100.00;102626.28;5003017;28;20180;-67
2023/05/29 03:33:48;;;;;;;9.53;2.90;;;;;;;10.53;100.00;102617.97;5002922;28;20202;-67
2023/05/29 03:36:13;;;;;;;6.97;2.60;;;;;;;10.91;100.00;102686.59;4986894;28;20264;-67
2023/05/29 03:38:39;;;;;;;6.43;2.47;;;;;;;10.76;100.00;102672.00;5002829;28;20531;-67
2023/05/29 03:41:05;;;;;;;6.57;2.23;;;;;;;11.04;100.00;102676.25;4986821;28;20184;-67
2023/05/29 03:43:30;;;;;;;10.70;2.80;;;;;;;10.84;100.00;102674.75;4982808;28;20181;-67
2023/05/29 03:45:56;;;;;;;8.10;2.70;;;;;;;10.80;100.00;102682.28;5000709;28;20228;-67
2023/05/29 03:48:21;;;;;;;10.90;3.23;;;;;;;10.86;100.00;102692.41;5001388;28;20208;-67
2023/05/29 03:50:47;;;;;;;12.77;3.23;;;;;;;10.91;100.00;102686.59;5000987;28;20652;-67
2023/05/29 03:53:12;;;;;;;7.90;2.50;;;;;;;10.37;100.00;102613.31;5000485;28;20207;-66
2023/05/29 03:55:38;;;;;;;9.53;2.60;;;;;;;10.39;100.00;102603.31;5001715;28;20196;-67
2023/05/29 03:58:03;;;;;;;11.10;3.00;;;;;;;10.45;100.00;102626.81;5002723;28;20220;-67
2023/05/29 04:00:29;;;;;;;7.13;2.13;;;;;;;10.87;100.00;102690.56;5002933;28;20192;-67
2023/05/29 04:02:55;;;;;;;13.97;3.33;;;;;;;10.76;100.00;102697.03;5002117;28;20268;-67
2023/05/29 04:05:21;;;;;;;9.00;2.30;;;;;;;10.64;100.00;102695.56;4982803;28;20296;-67
2023/05/29 04:07:46;;;;;;;8.40;3.43;;;;;;;10.34;100.00;102629.72;5001690;28;20925;-67
2023/05/29 04:10:12;;;;;;;12.67;3.37;;;;;;;10.69;100.00;102662.91;4998384;28;20295;-67
2023/05/29 04:12:38;;;;;;;7.50;2.60;;;;;;;9.96;100.00;102565.50;5000844;28;20201;-67
2023/05/29 04:15:04;;;;;;;10.33;3.20;;;;;;;10.46;100.00;102633.88;4979797;28;20190;-67
2023/05/29 04:17:29;;;;;;;7.60;2.23;;;;;;;10.78;100.00;102694.19;5000702;28;20224;-67
2023/05/29 04:19:55;;;;;;;12.57;2.70;;;;;;;10.88;100.00;102697.63;5002002;28;20441;-67
2023/05/29 04:22:20;;;;;;;8.40;2.63;;;;;;;10.61;100.00;102604.63;5001397;28;20182;-67
2023/05/29 04:24:46;;;;;;;8.80;2.77;;;;;;;10.79;100.00;102688.66;5001655;28;20672;-67
2023/05/29 04:27:13;;;;;;;6.97;2.47;;;;;;;10.58;100.00;102634.47;4998912;28;20213;-67
2023/05/29 04:29:42;;;;;;;11.80;2.90;;;;;;;10.74;100.00;102645.34;4980599;28;20199;-67
2023/05/29 04:32:10;;;;;;;9.30;2.97;;;;;;;10.65;100.00;102621.28;4995979;28;20451;-67
2023/05/29 04:34:35;;;;;;;12.00;2.60;;;;;;;11.12;100.00;102701.50;4982429;28;20598;-66
2023/05/29 04:37:04;;;;;;;7.90;2.77;;;;;;;11.07;100.00;102710.00;5001601;28;20871;-67
2023/05/29 04:39:30;;;;;;;9.60;2.80;;;;;;;10.72;100.00;102646.50;4997656;28;20675;-68
2023/05/29 04:41:58;;;;;;;8.20;2.90;;;;;;;10.92;100.00;102688.25;5000445;28;20528;-68
2023/05/29 04:44:28;;;;;;;8.70;2.60;;;;;;;10.59;100.00;102623.59;4983545;28;20811;-68
2023/05/29 04:46:54;;;;;;;9.50;2.73;;;;;;;11.06;100.00;102719.09;5000492;28;20654;-68
2023/05/29 04:49:20;;;;;;;12.23;3.67;;;;;;;10.34;100.00;102601.06;5001689;28;20933;-68
2023/05/29 04:51:46;;;;;;;16.13;4.00;;;;;;;10.80;100.00;102647.41;4999882;28;20188;-68
2023/05/29 04:54:12;;;;;;;12.30;2.90;;;;;;;11.09;100.00;102711.53;5000015;28;20267;-68
2023/05/29 04:56:39;;;;;;;8.43;2.80;;;;;;;11.11;100.00;102716.78;4991166;28;20460;-68
2023/05/29 04:59:06;;;;;;;13.93;2.80;;;;;;;10.88;100.00;102662.72;5000522;28;20432;-68
2023/05/29 05:01:33;;;;;;;7.80;3.00;;;;;;;10.86;100.00;102632.50;4985851;28;20977;-68
2023/05/29 05:03:59;;;;;;;11.07;3.67;;;;;;;10.66;100.00;102637.22;4996668;28;20493;-66
2023/05/29 05:06:25;;;;;;;12.57;4.20;;;;;;;10.43;100.00;102601.97;5000206;28;20952;-67
2023/05/29 05:08:51;;;;;;;10.80;3.33;;;;;;;10.68;100.00;102640.59;5000020;28;20463;-67
2023/05/29 05:11:18;;;;;;;10.17;3.23;;;;;;;10.69;100.00;102628.00;4998721;28;20188;-67
2023/05/29 05:13:43;;;;;;;9.40;2.60;;;;;;;10.95;100.00;102653.03;4978189;28;20510;-67
2023/05/29 05:16:09;;;;;;;12.93;3.03;;;;;;;11.39;100.00;102706.72;4986897;28;21005;-66
2023/05/29 05:18:35;;;;;;;9.60;3.00;;;;;;;11.22;100.00;102708.44;4997909;28;20709;-67
2023/05/29 05:21:02;;;;;;;10.83;2.90;;;;;;;11.28;100.00;102720.41;5000962;28;20663;-67
2023/05/29 05:23:28;;;;;;;7.50;2.63;;;;;;;11.27;100.00;102708.81;5000610;28;20428;-66
2023/05/29 05:25:53;;;;;;;10.57;3.23;;;;;;;10.81;100.00;102642.88;5000608;28;20459;-66
2023/05/29 05:28:19;;;;;;;8.80;3.10;;;;;;;11.48;100.00;102713.81;4980905;28;20204;-67
2023/05/29 05:30:44;;;;;;;9.00;3.63;;;;;;;11.48;100.00;102712.97;5002338;28;20642;-67
2023/05/29 05:33:10;;;;;;;9.37;3.60;;;;;;;10.77;100.00;102636.13;5001237;28;20197;-68
2023/05/29 05:35:35;;;;;;;12.10;3.13;;;;;;;11.06;100.00;102634.00;4999454;28;20177;-66
2023/05/29 05:38:01;;;;;;;9.40;3.17;;;;;;;11.28;100.00;102696.22;4996489;28;20207;-67
2023/05/29 05:40:26;;;;;;;10.07;3.53;;;;;;;10.92;100.00;102637.25;4984861;28;20199;-67
2023/05/29 05:42:52;;;;;;;11.83;3.60;;;;;;;11.67;100.00;102683.19;4996734;28;20213;-66
2023/05/29 05:45:17;;;;;;;7.93;3.03;;;;;;;11.75;100.00;102711.97;4999454;28;20191;-66
2023/05/29 05:47:42;;;;;;;9.90;2.90;;;;;;;11.83;100.00;102713.81;4998584;28;20216;-67
2023/05/29 05:50:08;;;;;;;8.23;3.00;;;;;;;11.74;100.00;102727.25;4984809;28;20196;-66
2023/05/29 05:52:34;;;;;;;12.03;3.60;;;;;;;11.40;100.00;102660.06;5001816;28;20668;-67
2023/05/29 05:55:00;;;;;;;11.13;3.10;;;;;;;11.75;100.00;102720.88;5001230;28;20427;-66
2023/05/29 05:57:26;;;;;;;10.67;3.43;;;;;;;11.75;100.00;102715.50;4983501;28;20198;-67
2023/05/29 05:59:52;;;;;;;8.87;3.33;;;;;;;11.89;100.00;102727.53;5000251;28;20196;-67
2023/05/29 06:02:17;;;;;;;10.27;3.23;;;;;;;11.47;100.00;102654.88;5000198;28;20420;-67
2023/05/29 06:04:43;;;;;;;10.43;3.53;;;;;;;11.77;100.00;102713.50;5000563;28;20684;-66
2023/05/29 06:07:08;;;;;;;9.67;3.23;;;;;;;11.94;100.00;102725.16;5001480;28;20209;-66
2023/05/29 06:09:34;;;;;;;7.60;2.80;;;;;;;11.42;100.00;102633.00;5000136;28;20259;-69
2023/05/29 06:12:00;;;;;;;15.43;3.27;;;;;;;11.37;100.00;102614.69;5001740;28;20188;-69
2023/05/29 06:14:25;;;;;;;9.40;2.93;;;;;;;11.31;100.00;102618.88;5000085;28;20682;-67
2023/05/29 06:16:51;;;;;;;8.20;2.77;;;;;;;11.64;100.00;102661.16;4997448;28;20679;-66
2023/05/29 06:19:16;;;;;;;12.90;3.33;;;;;;;11.09;100.00;102590.69;4997837;28;20180;-67
2023/05/29 06:21:42;;;;;;;9.23;3.50;;;;;;;11.89;100.00;102724.84;4997947;28;20200;-66
2023/05/29 06:24:07;;;;;;;13.40;4.07;;;;;;;11.66;100.00;102662.69;4997912;28;20271;-68
2023/05/29 06:26:33;;;;;;;15.40;3.30;;;;;;;12.14;100.00;102739.19;4997521;28;20181;-67
2023/05/29 06:28:59;;;;;;;13.90;3.53;;;;;;;12.08;100.00;102720.19;4996264;28;20216;-66
2023/05/29 06:31:24;;;;;;;10.37;4.10;;;;;;;11.77;100.00;102659.72;5000353;28;20930;-66
2023/05/29 06:33:50;;;;;;;15.93;3.30;;;;;;;12.14;100.00;102706.91;4997406;28;20208;-67
2023/05/29 06:36:16;;;;;;;11.50;3.20;;;;;;;11.89;100.00;102695.25;4995806;28;20196;-66
2023/05/29 06:38:46;;;;;;;13.33;3.27;;;;;;;12.17;100.00;102746.94;4978783;28;20484;-66
2023/05/29 06:41:12;;;;;;;18.67;3.90;;;;;;;12.30;100.00;102737.59;4995950;28;20185;-66
2023/05/29 06:43:37;;;;;;;11.93;3.77;;;;;;;12.10;100.00;102718.19;4998433;28;20459;-66
2023/05/29 06:46:03;;;;;;;9.10;3.20;;;;;;;11.90;100.00;102704.16;4999560;28;21024;-66
2023/05/29 06:48:31;;;;;;;11.77;3.60;;;;;;;11.46;100.00;102621.78;4999212;28;20224;-66
2023/05/29 06:50:57;;;;;;;11.30;3.20;;;;;;;12.08;100.00;102699.50;4997384;28;20193;-67
2023/05/29 06:53:22;;;;;;;14.27;4.00;;;;;;;11.81;100.00;102678.22;4995636;28;20479;-67
2023/05/29 06:55:48;;;;;;;11.50;3.13;;;;;;;12.51;100.00;102750.59;4998567;28;20180;-67
2023/05/29 06:58:13;;;;;;;8.27;2.83;;;;;;;12.09;100.00;102690.44;4998437;28;21421;-67
2023/05/29 07:00:38;;;;;;;10.90;3.20;;;;;;;12.43;100.00;102730.69;5000259;28;20271;-66
2023/05/29 07:03:04;;;;;;;10.30;3.80;;;;;;;12.46;100.00;102751.06;5004595;28;20718;-67
2023/05/29 07:05:29;;;;;;;10.17;3.00;;;;;;;12.51;100.00;102747.88;5000934;28;20659;-67
2023/05/29 07:07:55;;;;;;;12.63;3.70;;;;;;;11.82;100.00;102605.44;4987899;28;20613;-67
2023/05/29 07:10:20;;;;;;;12.23;3.63;;;;;;;12.68;100.00;102749.59;4985516;28;20189;-67
2023/05/29 07:12:46;;;;;;;11.53;3.23;;;;;;;12.72;100.00;102744.72;5002954;28;20181;-68
2023/05/29 07:15:11;;;;;;;12.97;3.77;;;;;;;12.31;100.00;102680.91;5002744;28;20173;-67
2023/05/29 07:17:37;;;;;;;10.40;3.60;;;;;;;12.77;100.00;102743.22;5001023;28;20216;-67
2023/05/29 07:20:04;;;;;;;12.63;3.40;;;;;;;12.91;100.00;102743.56;5003716;28;20533;-66
2023/05/29 07:22:30;;;;;;;9.47;3.40;;;;;;;12.56;100.00;102686.34;5002711;28;20192;-67
2023/05/29 07:24:55;;;;;;;11.80;3.17;;;;;;;12.40;100.00;102662.91;5004132;28;20432;-66
2023/05/29 07:27:20;;;;;;;16.67;3.67;;;;;;;12.56;100.00;102678.25;4995453;28;20239;-67
2023/05/29 07:29:46;;;;;;;13.83;3.20;;;;;;;13.03;100.00;102753.84;4981660;28;20327;-67
2023/05/29 07:32:11;;;;;;;13.40;3.37;;;;;;;12.76;100.00;102662.63;4997382;28;20181;-67
2023/05/29 07:34:37;;;;;;;8.43;3.13;;;;;;;13.08;100.00;102729.09;4999856;28;20758;-67
2023/05/29 07:37:04;;;;;;;11.07;3.80;;;;;;;12.81;100.00;102677.22;4980561;28;21878;-67
2023/05/29 07:39:34;;;;;;;19.20;3.37;;;;;;;13.25;100.00;102735.28;4985123;28;20586;-67
2023/05/29 07:42:03;;;;;;;10.30;4.00;;;;;;;13.20;100.00;102740.38;5001310;28;20439;-67
2023/05/29 07:44:29;;;;;;;9.60;3.73;;;;;;;12.94;100.00;102679.44;4986512;28;21144;-67
2023/05/29 07:46:55;;;;;;;15.00;3.27;;;;;;;13.34;100.00;102742.41;4985450;28;20443;-68
2023/05/29 07:49:21;;;;;;;9.17;2.70;;;;;;;12.92;100.00;102661.75;4992861;28;20815;-67
2023/05/29 07:51:46;;;;;;;18.13;3.53;;;;;;;13.27;100.00;102728.75;5002471;28;20193;-67
2023/05/29 07:54:11;;;;;;;12.40;3.70;;;;;;;13.27;100.00;102720.66;4984101;28;20486;-67
2023/05/29 07:56:38;;;;;;;9.27;3.20;;;;;;;13.02;100.00;102659.72;5003588;28;20214;-67
2023/05/29 07:59:03;;;;;;;11.57;3.23;;;;;;;12.95;100.00;102653.34;4995279;28;20197;-69
2023/05/29 08:01:29;;;;;;;7.93;2.83;;;;;;;12.84;100.00;102619.50;4981451;28;20972;-67
2023/05/29 08:03:55;;;;;;;12.50;3.03;;;;;;;13.32;100.00;102704.00;5000089;28;20185;-68
2023/05/29 08:06:21;;;;;;;10.33;2.93;;;;;;;13.62;100.00;102740.13;4997042;28;20186;-68
2023/05/29 08:08:47;;;;;;;9.63;3.23;;;;;;;13.58;100.00;102738.81;4977010;28;20191;-68
2023/05/29 08:11:12;;;;;;;10.47;2.80;;;;;;;13.23;100.00;102665.41;5000858;28;20441;-68
2023/05/29 08:13:38;;;;;;;14.80;3.17;;;;;;;13.42;100.00;102728.06;5001495;28;20463;-68
2023/05/29 08:16:03;;;;;;;15.07;3.27;;;;;;;13.03;100.00;102691.03;5002115;28;20823;-68
2023/05/29 08:18:32;;;;;;;13.93;3.23;;;;;;;13.59;100.00;102758.53;4986262;28;20221;-68
2023/05/29 08:20:58;;;;;;;10.70;3.50;;;;;;;13.69;100.00;102753.78;5001524;28;20686;-70
2023/05/29 08:23:24;;;;;;;11.37;3.23;;;;;;;13.76;100.00;102752.91;5000332;28;20456;-68
2023/05/29 08:25:49;;;;;;;8.53;3.57;;;;;;;13.87;100.00;102756.25;4992997;28;20444;-69
2023/05/29 08:28:15;;;;;;;12.73;3.07;;;;;;;13.30;100.00;102674.50;4986435;28;20213;-68
2023/05/29 08:30:41;;;;;;;14.30;3.80;;;;;;;13.73;100.00;102765.91;4999545;28;20192;-69
2023/05/29 08:33:07;;;;;;;11.00;3.27;;;;;;;13.75;100.00;102751.22;5000982;28;20197;-68
2023/05/29 08:35:33;;;;;;;10.80;3.40;;;;;;;13.76;100.00;102755.59;4998375;28;20962;-69
2023/05/29 08:37:59;;;;;;;16.13;4.03;;;;;;;13.28;100.00;102705.34;4997136;28;20464;-68
2023/05/29 08:40:24;;;;;;;12.03;3.63;;;;;;;13.92;100.00;102760.13;4999521;28;20659;-68
2023/05/29 08:43:02;;;;;;;16.00;4.07;;;;;;;13.85;100.00;102751.03;4998552;28;20530;-68
2023/05/29 08:45:28;;;;;;;10.20;3.50;;;;;;;13.11;100.00;102620.97;4998639;28;20231;-68
2023/05/29 08:47:57;;;;;;;12.20;3.80;;;;;;;14.00;100.00;102756.53;5000241;28;20509;-68
2023/05/29 08:50:23;;;;;;;13.10;4.70;;;;;;;13.32;100.00;102704.81;4983178;28;20902;-68
2023/05/29 08:52:49;;;;;;;11.03;3.97;;;;;;;13.40;100.00;102708.53;4998812;28;20540;-69
2023/05/29 08:55:15;;;;;;;8.10;3.00;;;;;;;13.84;100.00;102729.63;4980554;28;20196;-68
2023/05/29 08:57:43;;;;;;;11.83;3.67;;;;;;;13.96;100.00;102756.03;4980508;28;20883;-68
2023/05/29 09:00:12;;;;;;;11.17;3.00;;;;;;;13.91;100.00;102742.22;4998988;28;20188;-69
2023/05/29 09:02:44;;;;;;;11.10;3.47;;;;;;;14.13;100.00;102723.59;4999565;28;20816;-69
2023/05/29 09:05:10;;;;;;;12.30;3.40;;;;;;;13.70;100.00;102680.78;4998587;28;20432;-70
2023/05/29 09:07:39;;;;;;;10.70;2.97;;;;;;;13.64;100.00;102665.31;4982576;28;20465;-69
2023/05/29 09:10:11;;;;;;;12.57;3.60;;;;;;;14.25;100.00;102758.09;5001479;28;20181;-68
2023/05/29 09:12:37;;;;;;;13.57;3.40;;;;;;;14.25;100.00;102750.00;4985378;28;20445;-68
2023/05/29 09:15:02;;;;;;;14.33;3.70;;;;;;;14.05;100.00;102710.16;5001155;28;20774;-69
2023/05/29 09:17:34;;;;;;;12.47;3.70;;;;;;;14.25;100.00;102751.88;4989157;28;20590;-69
2023/05/29 09:20:00;;;;;;;9.87;3.27;;;;;;;14.24;100.00;102750.19;4995981;28;20254;-69
2023/05/29 09:22:26;;;;;;;12.37;2.97;;;;;;;13.61;100.00;102665.66;4986888;28;21041;-69
2023/05/29 09:24:51;;;;;;;11.67;3.20;;;;;;;13.72;100.00;102691.41;5000945;28;20185;-69
2023/05/29 09:27:17;;;;;;;8.27;2.80;;;;;;;14.31;100.00;102764.66;4999695;28;20683;-68
2023/05/29 09:29:45;;;;;;;15.07;3.97;;;;;;;13.78;100.00;102671.84;4999203;28;20682;-68
2023/05/29 09:32:16;;;;;;;8.67;3.37;;;;;;;14.17;100.00;102760.84;4991475;28;20421;-68
2023/05/29 09:34:43;;;;;;;15.13;3.23;;;;;;;13.36;100.00;102618.22;4997205;28;20476;-69
2023/05/29 09:37:10;;;;;;;11.20;2.90;;;;;;;14.27;100.00;102763.34;4997938;28;20945;-69
2023/05/29 09:39:42;;;;;;;11.27;3.43;;;;;;;14.22;100.00;102758.47;5000389;28;20448;-68
2023/05/29 09:42:08;;;;;;;9.00;2.50;;;;;;;14.38;100.00;102748.63;5002159;28;21143;-68
2023/05/29 09:44:34;;;;;;;11.00;3.27;;;;;;;14.33;100.00;102749.13;5000603;28;20440;-69
2023/05/29 09:47:00;;;;;;;8.70;2.77;;;;;;;14.47;100.00;102761.03;4997625;28;20459;-69
2023/05/29 09:49:28;;;;;;;9.77;4.10;;;;;;;14.51;100.00;102740.75;4995602;28;20197;-68
2023/05/29 09:51:54;;;;;;;20.50;4.03;;;;;;;14.41;100.00;102778.78;4995831;28;20228;-68
2023/05/29 09:54:20;;;;;;;9.80;3.80;;;;;;;14.32;100.00;102738.50;4973425;28;21171;-69
2023/05/29 09:56:46;;;;;;;10.20;3.10;;;;;;;13.94;100.00;102696.03;4983494;28;20221;-68
2023/05/29 09:59:17;;;;;;;7.80;2.70;;;;;;;14.11;100.00;102714.84;4976253;28;20271;-68
2023/05/29 10:01:44;;;;;;;14.33;3.63;;;;;;;14.53;100.00;102770.31;4999139;28;20442;-68
2023/05/29 10:04:13;;;;;;;16.23;3.60;;;;;;;14.23;100.00;102708.00;4996470;28;20444;-69
2023/05/29 10:06:46;;;;;;;10.40;3.10;;;;;;;14.63;100.00;102763.66;4978969;28;20459;-70
2023/05/29 10:09:15;;;;;;;12.97;3.93;;;;;;;14.66;100.00;102766.00;4992516;28;20526;-68
2023/05/29 10:11:43;;;;;;;9.33;3.30;;;;;;;14.18;100.00;102697.78;4995542;28;20467;-69
2023/05/29 10:14:14;;;;;;;12.37;3.80;;;;;;;13.86;100.00;102654.78;4995152;28;20982;-69
2023/05/29 10:16:43;;;;;;;8.33;2.90;;;;;;;14.60;100.00;102741.56;4989440;28;20934;-70
2023/05/29 10:19:13;;;;;;;21.10;3.40;;;;;;;14.15;100.00;102670.31;4997393;28;20947;-68
2023/05/29 10:21:41;;;;;;;7.67;2.97;;;;;;;14.15;100.00;102686.50;4997390;28;20440;-69
2023/05/29 10:24:08;;;;;;;12.07;3.20;;;;;;;14.54;100.00;102710.72;4994096;28;20495;-68
2023/05/29 10:26:40;;;;;;;13.33;3.70;;;;;;;13.97;100.00;102622.84;4979545;28;20925;-69
2023/05/29 10:29:12;;;;;;;9.77;2.87;;;;;;;14.43;100.00;102687.63;5000280;28;20450;-68
2023/05/29 10:32:07;;;;;;;12.33;3.00;;;;;;;14.87;100.00;102748.31;5000696;28;20442;-68
2023/05/29 10:35:04;;;;;;;10.60;3.47;;;;;;;14.69;100.00;102746.75;4998413;28;20559;-69
2023/05/29 10:37:40;;;;;;;9.70;3.10;;;;;;;14.41;100.00;102678.91;4999006;28;21252;-69
2023/05/29 10:40:14;;;;;;;8.63;3.13;;;;;;;14.84;100.00;102709.00;5005203;28;20439;-69
2023/05/29 10:42:53;;;;;;;12.03;3.53;;;;;;;14.29;100.00;102658.75;4985703;28;20439;-69
2023/05/29 10:45:35;;;;;;;12.63;3.93;;;;;;;14.85;100.00;102742.25;4983748;28;20469;-69
2023/05/29 10:48:07;;;;;;;15.80;5.10;;;;;;;15.00;100.00;102736.88;5000978;28;20982;-69
2023/05/29 10:50:35;;;;;;;16.07;6.30;;;;;;;15.10;100.00;102740.16;4998965;28;20471;-69
2023/05/29 10:53:01;;;;;;;18.10;6.77;;;;;;;15.13;100.00;102737.97;5001272;28;20506;-70
2023/05/29 10:55:35;;;;;;;11.50;4.10;;;;;;;14.64;100.00;102676.22;4997976;28;20431;-69
2023/05/29 10:58:05;;;;;;;10.83;4.00;;;;;;;15.22;100.00;102746.84;4999169;28;20596;-69
2023/05/29 11:00:30;;;;;;;8.80;3.60;;;;;;;15.40;100.00;102745.66;4999806;28;20493;-70
2023/05/29 11:02:56;;;;;;;20.10;3.50;;;;;;;14.53;100.00;102655.06;4999596;28;20816;-70
2023/05/29 11:05:24;;;;;;;9.93;3.43;;;;;;;15.21;100.00;102736.19;5000799;28;20208;-70
2023/05/29 11:07:56;;;;;;;9.43;3.20;;;;;;;15.29;100.00;102744.22;5000117;28;20625;-70
2023/05/29 11:10:51;;;;;;;25.77;4.47;;;;;;;15.53;100.00;102738.56;4983632;28;20472;-70